Time;durP1;ratioP1;P1;durP2;ratioP2;P2;SDS_P1;SDS_P2;PMS_P1;PMS_P2;Temp;Humidity;BMP_temperature;BMP_pressure;BME280_temperature;BME280_humidity;BME280_pressure;Samples;Min_cycle;Max_cycle;Signal;HPM_P1;HPM_P2
2022/03/28 00:02:00;;;;;;;;;;;;;;;5.91;72.93;101563.13;4974418;28;1833;-93
2022/03/28 00:04:25;;;;;;;;;;;;;;;5.92;72.05;101549.34;4973514;28;1791;-92
2022/03/28 00:06:50;;;;;;;;;;;;;;;5.81;72.46;101552.75;4973386;28;864;-92
2022/03/28 00:09:15;;;;;;;;;;;;;;;5.75;72.82;101555.53;4973643;28;1813;-92
2022/03/28 00:11:41;;;;;;;;;;;;;;;5.75;73.61;101553.66;4973597;28;1300;-92
2022/03/28 00:14:06;;;;;;;;;;;;;;;5.85;73.22;101556.69;4973587;28;1686;-91
2022/03/28 00:16:31;;;;;;;;;;;;;;;5.75;72.25;101555.53;4973341;28;1890;-92
2022/03/28 00:18:56;;;;;;;;;;;;;;;5.54;71.99;101557.56;4973666;28;1832;-92
2022/03/28 00:21:21;;;;;;;;;;;;;;;5.37;73.27;101547.47;4977842;28;1177;-91
2022/03/28 00:23:47;;;;;;;;;;;;;;;5.37;73.59;101550.19;4976584;28;1867;-93
2022/03/28 00:26:12;;;;;;;;;;;;;;;5.48;73.05;101547.59;4977117;28;1836;-92
2022/03/28 00:28:37;;;;;;;;;;;;;;;5.46;73.25;101548.88;4978158;28;988;-93
2022/03/28 00:31:02;;;;;;;;;;;;;;;5.46;73.77;101552.41;4976697;28;1445;-92
2022/03/28 00:33:27;;;;;;;;;;;;;;;5.48;73.96;101549.47;4976484;28;838;-92
2022/03/28 00:35:52;;;;;;;;;;;;;;;5.46;73.22;101552.41;4977798;28;1842;-92
2022/03/28 00:38:18;;;;;;;;;;;;;;;5.38;73.73;101544.53;4978216;28;1895;-92
2022/03/28 00:40:43;;;;;;;;;;;;;;;5.37;73.46;101547.47;4977635;28;1789;-92
2022/03/28 00:43:09;;;;;;;;;;;;;;;5.19;72.66;101546.34;4977707;28;1788;-92
2022/03/28 00:45:35;;;;;;;;;;;;;;;5.31;74.55;101541.06;4978311;28;1785;-92
2022/03/28 00:48:01;;;;;;;;;;;;;;;5.09;72.89;101543.31;4977801;28;1836;-92
2022/03/28 00:50:28;;;;;;;;;;;;;;;5.23;73.11;101534.00;4978645;28;1217;-92
2022/03/28 00:52:53;;;;;;;;;;;;;;;5.09;72.36;101537.06;4977766;28;1728;-93
2022/03/28 00:55:18;;;;;;;;;;;;;;;4.97;75.23;101536.06;4977470;28;1618;-92
2022/03/28 00:57:44;;;;;;;;;;;;;;;5.10;74.58;101530.56;4976148;28;1898;-92
2022/03/28 01:00:09;;;;;;;;;;;;;;;5.07;73.78;101531.00;4977300;28;1883;-92
2022/03/28 01:02:35;;;;;;;;;;;;;;;4.83;72.90;101524.47;4977093;28;1287;-92
2022/03/28 01:05:00;;;;;;;;;;;;;;;4.48;74.01;101526.75;4976312;28;1295;-91
2022/03/28 01:07:26;;;;;;;;;;;;;;;4.42;74.66;101511.34;4976347;28;1142;-93
2022/03/28 01:09:54;;;;;;;;;;;;;;;4.64;74.16;101509.97;4976246;28;1947;-93
2022/03/28 01:12:19;;;;;;;;;;;;;;;4.75;75.33;101517.44;4976108;28;1828;-90
2022/03/28 01:14:45;;;;;;;;;;;;;;;4.86;74.58;101510.47;4976183;28;1855;-92
2022/03/28 01:19:54;;;;;;;;;;;;;;;4.79;74.42;101504.25;4974861;28;1692;-92
2022/03/28 01:22:19;;;;;;;;;;;;;;;4.88;74.97;101506.50;4975685;28;1876;-92
2022/03/28 01:24:44;;;;;;;;;;;;;;;4.93;74.38;101512.09;4975554;28;1099;-92
2022/03/28 01:27:10;;;;;;;;;;;;;;;4.86;73.68;101503.16;4975874;28;1571;-91
2022/03/28 01:29:35;;;;;;;;;;;;;;;4.79;74.15;101505.09;4976929;28;1756;-93
2022/03/28 01:32:00;;;;;;;;;;;;;;;4.81;74.41;101504.88;4975323;28;1671;-92
2022/03/28 01:34:25;;;;;;;;;;;;;;;4.71;73.84;101499.09;4975461;28;1048;-91
2022/03/28 01:36:50;;;;;;;;;;;;;;;4.61;74.67;101494.13;4976964;28;1902;-92
2022/03/28 01:39:16;;;;;;;;;;;;;;;4.58;75.33;101489.16;4975480;28;1914;-92
2022/03/28 01:41:41;;;;;;;;;;;;;;;4.52;73.95;101484.59;4975283;28;1832;-91
2022/03/28 01:44:07;;;;;;;;;;;;;;;4.53;73.77;101486.25;4975319;28;1186;-92
2022/03/28 01:46:38;;;;;;;;;;;;;;;4.62;75.18;101489.53;4975454;28;1347;-92
2022/03/28 01:49:04;;;;;;;;;;;;;;;4.72;73.44;101485.31;4975306;28;1840;-90
2022/03/28 01:51:29;;;;;;;;;;;;;;;4.88;74.42;101479.38;4975357;28;1269;-92
2022/03/28 01:53:54;;;;;;;;;;;;;;;4.97;74.38;101476.38;4975099;28;952;-91
2022/03/28 01:56:19;;;;;;;;;;;;;;;4.81;73.93;101473.16;4976530;28;1395;-93
2022/03/28 01:58:44;;;;;;;;;;;;;;;4.59;74.13;101469.13;4975013;28;1890;-92
2022/03/28 02:01:09;;;;;;;;;;;;;;;4.45;74.17;101465.66;4976695;28;1228;-92
2022/03/28 02:03:34;;;;;;;;;;;;;;;4.37;74.27;101459.66;4976002;28;988;-92
2022/03/28 02:06:00;;;;;;;;;;;;;;;4.48;75.43;101461.69;4974830;28;1788;-93
2022/03/28 02:08:25;;;;;;;;;;;;;;;4.46;74.95;101458.34;4975098;28;1926;-92
2022/03/28 02:10:50;;;;;;;;;;;;;;;4.41;74.46;101452.75;4976162;28;1201;-93
2022/03/28 02:13:15;;;;;;;;;;;;;;;4.37;73.89;101454.22;4974733;28;1677;-92
2022/03/28 02:15:40;;;;;;;;;;;;;;;4.22;73.80;101440.13;4974925;28;976;-92
2022/03/28 02:18:05;;;;;;;;;;;;;;;4.21;74.60;101443.88;4974954;28;1953;-93
2022/03/28 02:20:30;;;;;;;;;;;;;;;4.16;74.44;101442.66;4975772;28;1823;-91
2022/03/28 02:22:56;;;;;;;;;;;;;;;3.95;75.04;101439.41;4974733;28;1801;-91
2022/03/28 02:25:21;;;;;;;;;;;;;;;3.95;75.19;101434.81;4974761;28;1194;-91
2022/03/28 02:27:46;;;;;;;;;;;;;;;3.96;75.74;101428.38;4974932;28;961;-93
2022/03/28 02:30:12;;;;;;;;;;;;;;;4.02;76.23;101427.50;4974627;28;1832;-91
2022/03/28 02:32:37;;;;;;;;;;;;;;;3.87;75.68;101424.22;4975270;28;1808;-93
2022/03/28 02:35:04;;;;;;;;;;;;;;;3.67;75.42;101421.56;4974888;28;1170;-93
2022/03/28 02:37:30;;;;;;;;;;;;;;;3.84;75.83;101427.34;4974932;28;1910;-92
2022/03/28 02:39:55;;;;;;;;;;;;;;;3.86;75.86;101417.16;4972890;28;1831;-91
2022/03/28 02:42:22;;;;;;;;;;;;;;;3.80;75.83;101418.84;4973484;28;1620;-93
2022/03/28 02:44:47;;;;;;;;;;;;;;;3.82;76.12;101418.63;4974135;28;1208;-92
2022/03/28 02:47:12;;;;;;;;;;;;;;;3.84;75.94;101415.69;4974470;28;1225;-91
2022/03/28 02:49:37;;;;;;;;;;;;;;;3.88;76.02;101406.94;4974374;28;1053;-91
2022/03/28 02:52:03;;;;;;;;;;;;;;;3.70;75.37;101404.09;4974382;28;1213;-92
2022/03/28 02:54:28;;;;;;;;;;;;;;;3.69;76.04;101403.25;4974013;28;1713;-92
2022/03/28 02:56:53;;;;;;;;;;;;;;;3.67;75.86;101401.78;4975378;28;1886;-93
2022/03/28 02:59:18;;;;;;;;;;;;;;;3.74;76.96;101400.72;4974186;28;1012;-92
2022/03/28 03:01:45;;;;;;;;;;;;;;;3.68;75.95;101395.34;4974025;28;1277;-93
2022/03/28 03:04:10;;;;;;;;;;;;;;;3.52;75.48;101395.78;4973795;28;1255;-91
2022/03/28 03:06:35;;;;;;;;;;;;;;;3.54;75.80;101382.88;4974084;28;996;-92
2022/03/28 03:09:00;;;;;;;;;;;;;;;3.25;76.19;101379.63;4973835;28;1248;-92
2022/03/28 03:11:25;;;;;;;;;;;;;;;3.30;76.43;101382.53;4975291;28;1250;-93
2022/03/28 03:13:53;;;;;;;;;;;;;;;3.45;75.73;101381.47;4973854;28;1807;-92
2022/03/28 03:16:18;;;;;;;;;;;;;;;3.35;75.59;101384.59;4973837;28;1781;-92
2022/03/28 03:18:43;;;;;;;;;;;;;;;3.34;76.53;101383.75;4973109;28;1894;-92
2022/03/28 03:21:08;;;;;;;;;;;;;;;3.14;76.14;101379.44;4991982;22;2206;-89
2022/03/28 03:23:33;;;;;;;;;;;;;;;3.05;77.01;101384.25;4971458;28;1800;-90
2022/03/28 03:25:58;;;;;;;;;;;;;;;3.30;76.93;101379.84;4976661;28;1360;-90
2022/03/28 03:28:24;;;;;;;;;;;;;;;3.19;76.44;101380.47;4976875;28;1346;-91
2022/03/28 03:30:49;;;;;;;;;;;;;;;3.29;75.81;101380.03;4976857;28;1232;-91
2022/03/28 03:33:17;;;;;;;;;;;;;;;3.45;76.72;101381.47;4976934;28;1290;-88
2022/03/28 03:35:49;;;;;;;;;;;;;;;3.52;76.49;101380.38;4974774;28;1816;-91
2022/03/28 03:38:15;;;;;;;;;;;;;;;3.57;76.73;101377.06;4957416;28;1914;-89
2022/03/28 03:43:36;;;;;;;;;;;;;;;3.41;75.67;101364.78;4974666;28;1029;-90
2022/03/28 03:46:07;;;;;;;;;;;;;;;3.36;76.02;101359.22;4957348;28;1285;-91
2022/03/28 03:48:32;;;;;;;;;;;;;;;3.29;75.63;101369.22;4957440;28;1292;-90
2022/03/28 03:50:57;;;;;;;;;;;;;;;3.12;75.39;101365.28;4957337;28;1315;-90
2022/03/28 03:53:23;;;;;;;;;;;;;;;3.06;75.55;101363.44;4957302;28;1378;-90
2022/03/28 03:55:48;;;;;;;;;;;;;;;3.03;76.78;101353.88;4978090;28;1016;-90
2022/03/28 03:58:16;;;;;;;;;;;;;;;3.12;77.14;101362.59;4960965;28;1954;-91
2022/03/28 04:00:44;;;;;;;;;;;;;;;3.06;76.35;101360.72;4961204;28;1288;-90
2022/03/28 04:03:09;;;;;;;;;;;;;;;2.96;75.95;101362.00;4978096;28;1151;-91
2022/03/28 04:06:01;;;;;;;;;;;;;;;2.88;76.31;101361.38;4961163;28;1277;-90
2022/03/28 04:11:31;;;;;;;;;;;;;;;2.66;77.77;101344.50;4974065;28;1222;-90
2022/03/28 04:13:59;;;;;;;;;;;;;;;2.64;76.94;101339.31;4960634;28;1221;-90
2022/03/28 04:16:26;;;;;;;;;;;;;;;2.78;77.22;101339.31;4961067;28;1356;-91
2022/03/28 04:18:52;;;;;;;;;;;;;;;2.65;77.43;101346.38;4960522;28;1882;-90
2022/03/28 04:21:17;;;;;;;;;;;;;;;2.88;77.90;101339.75;4960507;28;1177;-90
2022/03/28 04:23:42;;;;;;;;;;;;;;;3.13;77.43;101337.22;4960489;28;1021;-90
2022/03/28 04:26:07;;;;;;;;;;;;;;;3.23;76.65;101333.00;4960501;28;1205;-90
2022/03/28 04:28:32;;;;;;;;;;;;;;;3.33;76.29;101333.38;4960530;28;878;-91
2022/03/28 04:30:58;;;;;;;;;;;;;;;3.33;76.56;101327.97;4960268;28;1258;-90
2022/03/28 04:33:23;;;;;;;;;;;;;;;3.28;75.72;101322.38;4960421;28;1197;-90
2022/03/28 04:35:48;;;;;;;;;;;;;;;3.21;75.61;101315.34;4961264;28;1197;-93
2022/03/28 04:38:13;;;;;;;;;;;;;;;3.12;75.41;101308.50;4960508;28;1959;-91
2022/03/28 04:40:39;;;;;;;;;;;;;;;3.02;75.68;101317.03;4977658;28;869;-89
2022/03/28 04:43:13;;;;;;;;;;;;;;;2.86;77.31;101310.19;4977172;28;2019;-91
2022/03/28 04:45:39;;;;;;;;;;;;;;;2.91;77.22;101309.56;4959962;28;1575;-89
2022/03/28 04:48:04;;;;;;;;;;;;;;;2.92;77.57;101311.22;4960001;28;1606;-90
2022/03/28 04:50:29;;;;;;;;;;;;;;;2.91;76.51;101317.66;4963126;28;1549;-90
2022/03/28 04:52:55;;;;;;;;;;;;;;;2.84;77.24;101308.75;4959856;28;1340;-90
2022/03/28 04:55:20;;;;;;;;;;;;;;;2.79;77.13;101308.56;4960156;28;1325;-90
2022/03/28 04:57:45;;;;;;;;;;;;;;;2.92;78.13;101300.41;4959767;28;1965;-91
2022/03/28 05:00:11;;;;;;;;;;;;;;;2.98;77.32;101307.66;4959973;28;1493;-91
2022/03/28 05:02:36;;;;;;;;;;;;;;;2.92;76.98;101309.34;4959454;28;1438;-91
2022/03/28 05:05:03;;;;;;;;;;;;;;;2.85;77.11;101303.13;4976503;28;1860;-90
2022/03/28 05:07:31;;;;;;;;;;;;;;;2.90;77.40;101302.47;4959338;28;1813;-90
2022/03/28 05:09:57;;;;;;;;;;;;;;;2.93;77.58;101302.91;4959466;28;1364;-90
2022/03/28 05:12:23;;;;;;;;;;;;;;;3.04;77.70;101296.88;4976803;28;1818;-90
2022/03/28 05:14:49;;;;;;;;;;;;;;;3.06;77.93;101302.06;4959754;28;1270;-91
2022/03/28 05:17:15;;;;;;;;;;;;;;;3.09;78.12;101295.38;4949023;29;1906;-90
2022/03/28 05:19:41;;;;;;;;;;;;;;;3.21;77.93;101286.41;4940506;29;1233;-90
2022/03/28 05:22:06;;;;;;;;;;;;;;;3.29;78.02;101288.88;4940485;29;1249;-90
2022/03/28 05:24:31;;;;;;;;;;;;;;;3.32;78.19;101285.72;4957411;28;989;-90
2022/03/28 05:26:56;;;;;;;;;;;;;;;3.34;78.08;101286.34;4940485;29;723;-91
2022/03/28 05:29:24;;;;;;;;;;;;;;;3.39;78.57;101278.44;4957401;29;1025;-90
2022/03/28 05:31:49;;;;;;;;;;;;;;;3.49;78.40;101275.25;4940198;29;1274;-90
2022/03/28 05:34:14;;;;;;;;;;;;;;;3.56;77.82;101273.38;4940102;29;1240;-91
2022/03/28 05:36:39;;;;;;;;;;;;;;;3.59;77.66;101283.75;4939961;29;1911;-91
2022/03/28 05:39:05;;;;;;;;;;;;;;;3.52;78.19;101271.28;4940104;29;1352;-91
2022/03/28 05:41:30;;;;;;;;;;;;;;;3.63;77.96;101273.34;4940180;29;1249;-90
2022/03/28 05:43:57;;;;;;;;;;;;;;;3.57;77.72;101280.44;4939638;29;1041;-90
2022/03/28 05:46:22;;;;;;;;;;;;;;;3.74;78.82;101269.94;4939827;29;1218;-90
2022/03/28 05:48:47;;;;;;;;;;;;;;;3.84;78.42;101277.56;4957075;29;1020;-90
2022/03/28 05:51:12;;;;;;;;;;;;;;;3.89;78.24;101275.91;4956907;29;1189;-89
2022/03/28 05:53:37;;;;;;;;;;;;;;;3.86;78.19;101278.19;4939607;29;1238;-90
2022/03/28 05:56:03;;;;;;;;;;;;;;;3.97;78.60;101272.94;4939520;29;949;-89
2022/03/28 05:58:29;;;;;;;;;;;;;;;4.05;78.57;101272.66;4956730;29;1895;-89
2022/03/28 06:00:58;;;;;;;;;;;;;;;4.16;78.95;101277.38;4939389;29;1221;-89
2022/03/28 06:03:23;;;;;;;;;;;;;;;4.27;78.94;101281.25;4939436;29;1340;-89
2022/03/28 06:05:48;;;;;;;;;;;;;;;4.38;79.47;101275.13;4956746;29;917;-90
2022/03/28 06:08:13;;;;;;;;;;;;;;;4.35;79.42;101272.84;4939445;29;989;-90
2022/03/28 06:10:39;;;;;;;;;;;;;;;4.44;79.87;101278.81;4939328;29;1106;-90
2022/03/28 06:13:04;;;;;;;;;;;;;;;4.67;79.77;101270.94;4938948;29;1228;-89
2022/03/28 06:15:32;;;;;;;;;;;;;;;4.69;80.02;101266.09;4955306;29;1238;-89
2022/03/28 06:17:57;;;;;;;;;;;;;;;4.79;80.11;101263.69;4938490;29;1946;-89
2022/03/28 06:20:22;;;;;;;;;;;;;;;4.78;81.02;101259.31;4956422;29;787;-89
2022/03/28 06:22:47;;;;;;;;;;;;;;;4.83;82.28;101264.09;4939036;29;1171;-89
2022/03/28 06:25:13;;;;;;;;;;;;;;;4.75;83.43;101267.09;4954960;29;1087;-89
2022/03/28 06:27:40;;;;;;;;;;;;;;;4.80;84.45;101262.66;4939127;29;1183;-89
2022/03/28 06:30:06;;;;;;;;;;;;;;;4.92;85.15;101262.75;4938953;29;1359;-89
2022/03/28 06:32:31;;;;;;;;;;;;;;;5.01;85.09;101261.41;4938920;29;1202;-89
2022/03/28 06:34:56;;;;;;;;;;;;;;;4.92;85.18;101258.16;4938948;29;960;-90
2022/03/28 06:37:22;;;;;;;;;;;;;;;4.89;86.01;101258.59;4956395;29;1957;-89
2022/03/28 06:39:47;;;;;;;;;;;;;;;4.93;86.49;101261.69;4938896;29;1331;-89
2022/03/28 06:42:13;;;;;;;;;;;;;;;4.91;85.96;101253.78;4938855;29;1365;-90
2022/03/28 06:44:38;;;;;;;;;;;;;;;4.90;86.74;101257.53;4954722;29;1304;-89
2022/03/28 06:47:03;;;;;;;;;;;;;;;5.01;86.17;101257.84;4939109;29;1285;-90
2022/03/28 06:49:29;;;;;;;;;;;;;;;5.03;85.43;101255.72;4954853;29;1216;-90
2022/03/28 06:51:54;;;;;;;;;;;;;;;5.12;85.69;101252.50;4938816;29;1265;-90
2022/03/28 06:54:19;;;;;;;;;;;;;;;5.36;85.32;101252.66;4938587;29;1361;-90
2022/03/28 06:56:45;;;;;;;;;;;;;;;5.54;84.50;101247.16;4938681;29;1907;-90
2022/03/28 06:59:10;;;;;;;;;;;;;;;5.59;83.95;101247.34;4938645;29;1211;-90
2022/03/28 07:01:36;;;;;;;;;;;;;;;5.67;82.55;101253.28;4938681;29;1333;-89
2022/03/28 07:04:03;;;;;;;;;;;;;;;5.71;82.42;101249.03;4954451;29;1233;-90
2022/03/28 07:06:28;;;;;;;;;;;;;;;5.80;82.53;101241.38;4956127;29;826;-88
2022/03/28 07:08:53;;;;;;;;;;;;;;;5.79;82.11;101245.16;4938919;29;964;-89
2022/03/28 07:11:19;;;;;;;;;;;;;;;5.80;81.42;101243.25;4938607;29;1296;-89
2022/03/28 07:13:44;;;;;;;;;;;;;;;5.80;80.93;101243.25;4938277;29;1463;-89
2022/03/28 07:16:09;;;;;;;;;;;;;;;5.79;81.35;101241.59;4938435;29;973;-90
2022/03/28 07:18:36;;;;;;;;;;;;;;;5.91;81.90;101234.38;4955670;29;1940;-90
2022/03/28 07:21:01;;;;;;;;;;;;;;;5.96;81.71;101242.63;4948479;28;1824;-89
2022/03/28 07:23:26;;;;;;;;;;;;;;;5.99;81.09;101234.03;4957417;28;1261;-90
2022/03/28 07:25:51;;;;;;;;;;;;;;;5.98;81.33;101232.38;4974866;28;1095;-90
2022/03/28 07:28:17;;;;;;;;;;;;;;;5.96;81.65;101227.16;4958395;28;1209;-89
2022/03/28 07:30:43;;;;;;;;;;;;;;;5.93;81.81;101230.38;4961727;28;1319;-89
2022/03/28 07:33:08;;;;;;;;;;;;;;;5.97;81.97;101228.00;4961252;28;1310;-89
2022/03/28 07:35:35;;;;;;;;;;;;;;;5.93;81.71;101226.81;4961510;28;1208;-89
2022/03/28 07:38:01;;;;;;;;;;;;;;;5.77;81.95;101220.13;4961637;28;1958;-89
2022/03/28 07:40:27;;;;;;;;;;;;;;;5.77;82.23;101213.88;4961487;28;1295;-90
2022/03/28 07:42:53;;;;;;;;;;;;;;;5.84;82.78;101226.28;4961149;28;1319;-89
2022/03/28 07:45:18;;;;;;;;;;;;;;;5.91;82.53;101212.63;4961142;28;1335;-90
2022/03/28 07:47:44;;;;;;;;;;;;;;;6.00;82.50;101206.63;4961389;28;1409;-90
2022/03/28 07:50:09;;;;;;;;;;;;;;;6.08;82.74;101208.19;4961130;28;1209;-89
2022/03/28 07:52:34;;;;;;;;;;;;;;;6.05;82.47;101204.03;4961181;28;1250;-90
2022/03/28 07:55:00;;;;;;;;;;;;;;;6.17;82.52;101204.06;4978197;28;1000;-90
2022/03/28 07:57:25;;;;;;;;;;;;;;;6.24;82.66;101206.66;4978351;28;1895;-89
2022/03/28 07:59:50;;;;;;;;;;;;;;;6.35;83.12;101198.53;4959350;28;1279;-90
2022/03/28 08:02:16;;;;;;;;;;;;;;;6.39;83.00;101198.88;4960912;28;1186;-89
2022/03/28 08:04:43;;;;;;;;;;;;;;;6.43;82.32;101189.19;4960670;28;1079;-89
2022/03/28 08:07:08;;;;;;;;;;;;;;;6.56;81.89;101193.53;4960809;28;1260;-89
2022/03/28 08:09:37;;;;;;;;;;;;;;;6.67;82.01;101179.94;4978209;28;790;-89
2022/03/28 08:12:03;;;;;;;;;;;;;;;6.75;81.77;101179.59;4960662;28;1206;-90
2022/03/28 08:14:28;;;;;;;;;;;;;;;6.83;82.19;101176.50;4960559;28;1248;-89
2022/03/28 08:16:53;;;;;;;;;;;;;;;6.91;81.56;101171.75;4960557;28;1907;-90
2022/03/28 08:19:18;;;;;;;;;;;;;;;7.03;80.85;101169.84;4960880;28;893;-89
2022/03/28 08:21:44;;;;;;;;;;;;;;;7.11;80.99;101164.00;4977790;28;1205;-89
2022/03/28 08:24:09;;;;;;;;;;;;;;;7.18;80.44;101168.25;4977842;28;1079;-89
2022/03/28 08:26:34;;;;;;;;;;;;;;;7.24;80.85;101166.44;4977764;28;693;-90
2022/03/28 08:28:59;;;;;;;;;;;;;;;7.30;80.38;101160.06;4960826;28;1229;-90
2022/03/28 08:31:24;;;;;;;;;;;;;;;7.37;80.58;101154.44;4977638;28;1280;-90
2022/03/28 08:33:49;;;;;;;;;;;;;;;7.42;80.21;101144.47;4960070;28;969;-90
2022/03/28 08:36:15;;;;;;;;;;;;;;;7.50;80.27;101138.63;4977725;28;989;-90
2022/03/28 08:38:40;;;;;;;;;;;;;;;7.58;80.45;101145.56;4960276;28;1970;-89
2022/03/28 08:41:12;;;;;;;;;;;;;;;7.68;81.31;101139.47;4976655;28;1177;-89
2022/03/28 08:43:38;;;;;;;;;;;;;;;7.75;81.38;101140.13;4977471;28;830;-90
2022/03/28 08:46:04;;;;;;;;;;;;;;;7.81;81.09;101134.56;4960168;28;1264;-90
2022/03/28 08:48:33;;;;;;;;;;;;;;;7.90;81.24;101137.69;4960234;28;1375;-90
2022/03/28 08:50:58;;;;;;;;;;;;;;;7.96;81.43;101129.34;4960081;28;1405;-90
2022/03/28 08:53:23;;;;;;;;;;;;;;;8.06;81.00;101130.59;4977153;28;689;-89
2022/03/28 08:55:48;;;;;;;;;;;;;;;8.15;81.12;101129.94;4977259;28;830;-89
2022/03/28 08:58:14;;;;;;;;;;;;;;;8.23;80.80;101129.50;4977298;28;1952;-90
2022/03/28 09:00:39;;;;;;;;;;;;;;;8.32;80.51;101128.03;4977190;28;889;-90
2022/03/28 09:03:05;;;;;;;;;;;;;;;8.41;80.24;101120.25;4977210;28;1182;-89
2022/03/28 09:05:34;;;;;;;;;;;;;;;8.47;80.18;101119.25;4959755;28;1282;-90
2022/03/28 09:08:00;;;;;;;;;;;;;;;8.55;80.27;101120.72;4977082;28;869;-90
2022/03/28 09:10:32;;;;;;;;;;;;;;;8.60;79.68;101112.59;4959933;28;1386;-90
2022/03/28 09:13:07;;;;;;;;;;;;;;;8.68;80.03;101112.16;4959585;28;1332;-90
2022/03/28 09:15:43;;;;;;;;;;;;;;;8.78;79.62;101115.00;4959674;28;1283;-89
2022/03/28 09:18:18;;;;;;;;;;;;;;;8.91;79.72;101103.72;4959226;28;1946;-90
2022/03/28 09:20:46;;;;;;;;;;;;;;;8.98;79.47;101109.00;4957550;29;810;-89
2022/03/28 09:23:49;;;;;;;;;;;;;;;9.06;79.94;101092.16;4960186;23;1894;-89
2022/03/28 09:26:18;;;;;;;;;;;;;;;9.19;78.81;101089.00;4923226;29;1393;-90
2022/03/28 09:28:51;;;;;;;;;;;;;;;9.25;77.95;101084.44;4955880;28;1398;-90
2022/03/28 09:31:16;;;;;;;;;;;;;;;9.29;78.25;101077.38;4956124;29;1323;-90
2022/03/28 09:33:51;;;;;;;;;;;;;;;9.32;78.31;101074.94;4952791;28;1225;-90
2022/03/28 09:36:16;;;;;;;;;;;;;;;9.46;78.89;101067.16;4952863;29;1324;-89
2022/03/28 09:38:54;;;;;;;;;;;;;;;9.54;78.20;101061.22;4952680;29;1979;-89
2022/03/28 09:41:22;;;;;;;;;;;;;;;9.78;78.55;101058.97;4952750;29;1269;-90
2022/03/28 09:43:52;;;;;;;;;;;;;;;9.88;78.31;101056.28;4952484;28;1293;-90
2022/03/28 09:46:24;;;;;;;;;;;;;;;9.96;78.59;101052.25;4952959;29;1163;-90
2022/03/28 09:48:49;;;;;;;;;;;;;;;9.92;77.88;101042.94;4953066;29;1257;-89
2022/03/28 09:51:16;;;;;;;;;;;;;;;9.96;78.24;101041.31;4952829;28;958;-89
2022/03/28 09:53:41;;;;;;;;;;;;;;;9.94;77.29;101047.06;4952324;28;1363;-90
2022/03/28 09:56:07;;;;;;;;;;;;;;;10.00;77.98;101035.06;4938494;28;1226;-90
2022/03/28 09:59:00;;;;;;;;;;;;;;;10.10;75.74;101039.78;4972279;28;1927;-90
2022/03/28 10:01:32;;;;;;;;;;;;;;;10.13;77.03;101033.75;4953612;29;1404;-90
2022/03/28 10:04:00;;;;;;;;;;;;;;;10.23;76.53;101028.38;4956518;28;1210;-90
2022/03/28 10:06:26;;;;;;;;;;;;;;;10.26;76.15;101027.84;4971880;28;1269;-90
2022/03/28 10:08:51;;;;;;;;;;;;;;;10.35;76.38;101022.72;4971429;28;1276;-90
2022/03/28 10:11:16;;;;;;;;;;;;;;;10.46;74.75;101021.69;4971785;28;1439;-90
2022/03/28 10:13:42;;;;;;;;;;;;;;;10.56;76.58;101016.22;4971230;28;1280;-90
2022/03/28 10:16:08;;;;;;;;;;;;;;;10.63;76.22;101013.25;4971432;28;1293;-90
2022/03/28 10:18:33;;;;;;;;;;;;;;;10.72;75.16;101020.66;4971375;28;1898;-89
2022/03/28 10:21:02;;;;;;;;;;;;;;;10.80;75.24;101009.19;4971222;28;1554;-90
2022/03/28 10:23:33;;;;;;;;;;;;;;;10.86;74.06;101010.88;4956278;28;1174;-89
2022/03/28 10:25:59;;;;;;;;;;;;;;;10.91;73.18;101004.56;4956393;28;852;-90
2022/03/28 10:28:24;;;;;;;;;;;;;;;10.93;73.94;100995.00;4955191;29;1329;-90
2022/03/28 10:31:06;;;;;;;;;;;;;;;10.96;74.37;100991.72;4971278;28;1200;-89
2022/03/28 10:33:31;;;;;;;;;;;;;;;11.07;74.27;100986.22;4971311;28;1359;-90
2022/03/28 10:36:18;;;;;;;;;;;;;;;11.25;74.52;100986.53;4971138;28;1272;-90
2022/03/28 10:38:43;;;;;;;;;;;;;;;11.50;74.44;100987.63;4970960;28;1986;-90
2022/03/28 10:41:13;;;;;;;;;;;;;;;11.60;73.16;100982.16;4956179;29;988;-90
2022/03/28 10:43:39;;;;;;;;;;;;;;;11.63;73.90;100963.22;4970878;28;1275;-90
2022/03/28 10:46:09;;;;;;;;;;;;;;;11.65;73.69;100963.75;4970940;28;1194;-89
2022/03/28 10:48:43;;;;;;;;;;;;;;;11.65;72.82;100968.44;4955159;28;1392;-89
2022/03/28 10:51:15;;;;;;;;;;;;;;;11.74;73.37;100967.63;4955909;29;1040;-90
2022/03/28 10:53:42;;;;;;;;;;;;;;;11.83;72.60;100953.34;4970708;28;1288;-90
2022/03/28 10:56:07;;;;;;;;;;;;;;;11.82;71.61;100948.97;4970874;28;1377;-90
2022/03/28 10:58:36;;;;;;;;;;;;;;;11.80;72.51;100943.75;4970973;28;1891;-90
2022/03/28 11:01:08;;;;;;;;;;;;;;;11.89;71.87;100946.75;4970852;28;1356;-90
2022/03/28 11:03:35;;;;;;;;;;;;;;;12.15;72.59;100940.09;4955188;28;1174;-89
2022/03/28 11:06:01;;;;;;;;;;;;;;;12.41;70.89;100932.56;4970666;28;1241;-89
2022/03/28 11:08:32;;;;;;;;;;;;;;;12.54;71.42;100925.63;4970964;28;1332;-89
2022/03/28 11:11:17;;;;;;;;;;;;;;;12.88;69.17;100923.78;4970139;28;1549;-90
2022/03/28 11:13:42;;;;;;;;;;;;;;;12.98;68.26;100914.63;4970148;28;1265;-89
2022/03/28 11:16:37;;;;;;;;;;;;;;;13.27;68.30;100907.25;4953445;29;1567;-89
2022/03/28 11:19:20;;;;;;;;;;;;;;;13.41;66.32;100902.75;4952285;29;1886;-90
2022/03/28 11:21:55;;;;;;;;;;;;;;;13.66;65.97;100895.34;4962750;28;1296;-89
2022/03/28 11:24:39;;;;;;;;;;;;;;;13.75;65.01;100908.19;4946291;29;1504;-90
2022/03/28 11:27:05;;;;;;;;;;;;;;;13.63;65.08;100897.56;4961395;28;1472;-89
2022/03/28 11:29:30;;;;;;;;;;;;;;;13.75;64.70;100899.94;4953693;29;1434;-89
2022/03/28 11:31:55;;;;;;;;;;;;;;;13.87;66.14;100892.06;4948392;29;1293;-90
2022/03/28 11:34:21;;;;;;;;;;;;;;;13.97;65.16;100896.63;4947380;28;1213;-89
2022/03/28 11:36:46;;;;;;;;;;;;;;;13.83;65.07;100882.78;4943511;29;1277;-90
2022/03/28 11:39:14;;;;;;;;;;;;;;;13.73;65.08;100893.06;4951023;29;1930;-90
2022/03/28 11:41:40;;;;;;;;;;;;;;;13.80;64.30;100882.53;4944784;29;1931;-90
2022/03/28 11:44:05;;;;;;;;;;;;;;;14.09;64.47;100887.97;4955328;28;1280;-90
2022/03/28 11:46:31;;;;;;;;;;;;;;;14.16;63.61;100872.75;4952497;29;1759;-89
2022/03/28 11:48:57;;;;;;;;;;;;;;;14.25;62.50;100870.97;4954483;28;1602;-91
2022/03/28 11:51:25;;;;;;;;;;;;;;;14.21;62.28;100864.41;4969899;28;1982;-89
2022/03/28 11:53:50;;;;;;;;;;;;;;;14.03;64.84;100860.50;4953678;29;1919;-89
2022/03/28 11:56:22;;;;;;;;;;;;;;;14.19;62.88;100868.59;4954185;29;1204;-90
2022/03/28 11:58:47;;;;;;;;;;;;;;;14.33;61.41;100853.78;4953740;29;1980;-89
2022/03/28 12:01:13;;;;;;;;;;;;;;;14.44;61.09;100843.47;4953880;28;1808;-89
2022/03/28 12:03:48;;;;;;;;;;;;;;;14.48;62.74;100840.94;4955018;28;1202;-91
2022/03/28 12:06:24;;;;;;;;;;;;;;;14.47;61.57;100845.63;4953750;29;1782;-89
2022/03/28 12:08:52;;;;;;;;;;;;;;;14.68;60.66;100838.69;4955309;28;1103;-89
2022/03/28 12:11:17;;;;;;;;;;;;;;;14.68;58.34;100829.59;4954815;29;2053;-89
2022/03/28 12:13:42;;;;;;;;;;;;;;;14.82;58.30;100829.66;4953316;28;2011;-89
2022/03/28 12:16:07;;;;;;;;;;;;;;;14.70;58.67;100825.44;4971774;28;1243;-88
2022/03/28 12:18:33;;;;;;;;;;;;;;;14.77;59.08;100814.84;4958384;29;1910;-88
2022/03/28 12:20:58;;;;;;;;;;;;;;;14.71;58.25;100823.50;4973320;28;1209;-88
2022/03/28 12:23:25;;;;;;;;;;;;;;;14.77;57.82;100817.63;4972242;28;2074;-87
2022/03/28 12:25:52;;;;;;;;;;;;;;;14.75;57.80;100817.09;4973468;28;1237;-87
2022/03/28 12:28:26;;;;;;;;;;;;;;;14.80;58.05;100810.66;4972535;28;2054;-87
2022/03/28 12:30:53;;;;;;;;;;;;;;;14.90;59.12;100807.72;4954062;29;1214;-87
2022/03/28 12:33:20;;;;;;;;;;;;;;;15.03;57.36;100800.63;4970651;28;1775;-87
2022/03/28 12:35:47;;;;;;;;;;;;;;;15.08;58.16;100806.06;4956716;28;1151;-87
2022/03/28 12:38:15;;;;;;;;;;;;;;;15.18;59.55;100799.53;4956778;29;1898;-86
2022/03/28 12:40:43;;;;;;;;;;;;;;;15.21;58.68;100797.00;4956540;29;1595;-86
2022/03/28 12:43:08;;;;;;;;;;;;;;;15.30;57.51;100786.09;4956566;28;1330;-86
2022/03/28 12:45:33;;;;;;;;;;;;;;;15.39;56.73;100789.78;4957878;29;1186;-87
2022/03/28 12:48:02;;;;;;;;;;;;;;;15.43;55.61;100774.22;4956587;29;1458;-87
2022/03/28 12:50:28;;;;;;;;;;;;;;;15.49;56.70;100767.47;4956489;29;1792;-88
2022/03/28 12:53:11;;;;;;;;;;;;;;;15.62;57.19;100769.47;4968821;28;1959;-87
2022/03/28 12:55:37;;;;;;;;;;;;;;;15.70;57.46;100765.97;4953577;29;1233;-87
2022/03/28 12:58:03;;;;;;;;;;;;;;;15.79;56.92;100757.78;4970484;28;1959;-87
2022/03/28 13:00:29;;;;;;;;;;;;;;;15.93;55.38;100747.53;4956876;29;1352;-87
2022/03/28 13:02:54;;;;;;;;;;;;;;;16.14;56.89;100742.38;4956533;29;1365;-86